LCPH/PFO METAR and TAF weather

Enter ICAO airport designator
Station Type Date Time Source
LCPH METAR 2019/10/23 03:30 UTC NOAA

LCPH 230330Z 02005KT 9999 FEW025CB 18/12 Q1012


Station Type Date Time Source
LCPH Decoded METAR 2019/10/23 03:30 UTC NOAA

Paphos Airport, Cyprus (LCPH) 34-43N 032-29E 8M
Oct 22, 2019 - 11:30 PM EDT / 2019.10.23 0330 UTC
Wind: from the NNE (020 degrees) at 6 MPH (5 KT):0
Visibility: greater than 7 mile(s):0
Sky conditions: mostly clear
Weather: Cumulonimbus clouds observed
Temperature: 64 F (18 C)
Dew Point: 53 F (12 C)
Relative Humidity: 67%
Pressure (altimeter): 29.88 in. Hg (1012 hPa)
ob: LCPH 230330Z 02005KT 9999 FEW025CB 18/12 Q1012
cycle: 3

Station Type Date Time Source
LCPH TAF 2019/10/22 18:36 UTC NOAA

TAF LCPH 221730Z 2218/2318 04007KT 9999 FEW025
BECMG 2309/2313 11010KT PROB30
TEMPO 2312/2319 VRB25G35KT 3000 TSRA SCT020CB
BECMG 2316/2318 04007KT

Example: see airport list